Grovetown, GA (30813)

5:13 PM EST on February 13, 2016 (GMT -0500)
Ashland Commons | | Change Station
CLOSE
Current Station
Personal Weather Station
Location: Grovetown, GA
Elevation: 410 ft
Nearby Weather Stations

Elev 410 ft 33.45 °N, 82.22 °W | Updated 3 seconds ago

Clear
Clear
48.6 °F
Feels Like 46 °F
N
6.8
Wind Variable Wind from NNE

Today
High -- | Low -- °F
--% Chance of Precip.
Yesterday
High -- | Low -- °F
Precip. -- in
Pressure 30.27 in
Visibility 10.0 miles
Clouds Clear
Windchill 46 °F
Dew Point 12 °F
Humidity 23%
Rainfall 0.00 in
Snow Depth Not available.
7:15 AM 6:11 PM
Waxing Crescent, 34% visible
METAR KDNL 132153Z AUTO 34007KT 310V010 10SM CLR 10/M11 A3027 RMK AO2 SLP250 T01001111 TSNO
Pressure 30.27 in
Visibility 10.0 miles
Clouds Clear
Windchill 46 °F
Dew Point 12 °F
Humidity 23%
Rainfall 0.00 in
Snow Depth Not available.
7:15 AM 6:11 PM
Waxing Crescent, 34% visible
METAR KDNL 132153Z AUTO 34007KT 310V010 10SM CLR 10/M11 A3027 RMK AO2 SLP250 T01001111 TSNO

10-Day Weather Forecast

Almanac

Astronomy

Feb. 13, 2016 Rise Set
Actual Time
Civil Twilight
Nautical Twilight
Astronomical Twilight
Moon
Length of Visible Light
Length of Day
Tomorrow will be .
, % of the Moon is Illuminated

Today's Extremes

State Highs State Lows

Community

WunderPhotos

Upload Photos

1,892,687 photos uploaded!

WunderBlog® & News

Nearby

Air Quality

  Air Quality AQ Index Pollutant
Not available.

Snow Depth

Station Depth Elevation

Earthquake Activity

City Distance Mag. Time & Date
Minimum magnitude displayed is 2.5.

Coastal Water Temperatures

Place Temperature

Stations

Nearby Weather Stations

Station Location Temp. Windchill Dew Point Humidity Wind Precip. Elev Updated Type
                   

Watches & Warnings

There are currently no watches in effect.